Sault Sainte Marie, MI (49783)

5:23 AM EDT on September 01, 2015 (GMT -0400)
Sault Ste Marie Municipal / Sanderson Field | | Change Station
CLOSE
Current Station
Airport
Location: Sault Ste Marie,
Elevation: 715 ft
Nearby Weather Stations

Elev 715 ft 46.48 °N, 84.36 °W | Updated 28 minutes ago

Fog
Fog
64 °F
Feels Like 64 °F
N
5
Wind Variable Wind from SSE

Today
High -- | Low -- °F
--% Chance of Precip.
Yesterday
High -- | Low -- °F
Precip. -- in
6:57 AM 8:16 PM
Waning Gibbous, 90% visible
Pressure 29.98 in
Visibility 0.5 miles
Clouds
Dew Point 63 °F
Humidity 96%
Rainfall 0.00 in
Snow Depth Not available.
UV Not available.
Pollen 10.50 out of 12
Air Quality Not available.
Flu Activity Not available.
METAR KANJ 010855Z AUTO 16004KT 1/2SM FG VV002 18/17 A2999 RMK AO2 SLP150 T01780172 55003
Pressure 29.98 in
Visibility 0.5 miles
Clouds
Dew Point 63 °F
Humidity 96%
Rainfall 0.00 in
Snow Depth Not available.
UV Not available.
Pollen 10.50 out of 12
Air Quality Not available.
Flu Activity Not available.
METAR KANJ 010855Z AUTO 16004KT 1/2SM FG VV002 18/17 A2999 RMK AO2 SLP150 T01780172 55003
Nowcast | as of 5:00 am EDT on September 1, 2015

At 6 am...cloudy. Areas of fog. Temperature 63. South winds 5 mph. At 8 am...cloudy. Areas of fog. Temperature 64. Southwest winds 6 mph. At 10 am...mostly cloudy. Temperature 68. Southwest winds 6 mph. At 12 PM...partly cloudy. Temperature 73. Southwest winds 7 mph.

×

10-Day Weather Forecast

×

Almanac

Astronomy

Sep. 01, 2015 Rise Set
Actual Time
Civil Twilight
Nautical Twilight
Astronomical Twilight
Moon
Length of Visible Light
Length of Day
Tomorrow will be .
, % of the Moon is Illuminated

Today's Extremes

State Highs State Lows

Community

WunderPhotos

Upload Photos

1,851,490 photos uploaded!

WunderBlogs® & News

Nearby

Air Quality

  Air Quality AQ Index Pollutant
Not available.

Snow Depth

Station Depth Elevation

Earthquake Activity

City Distance Mag. Time & Date
Minimum magnitude displayed is 2.5.

Coastal Water Temperatures

Place Temperature

Stations

Nearby Weather Stations

Station Location Temp. Windchill Dew Point Humidity Wind Precip. Elev Updated Type